createdAt,value
2019-01-21T00:00:38.939Z,-4.72
2019-01-21T00:03:14.355Z,-4.68
2019-01-21T00:05:42.670Z,-4.69
2019-01-21T00:08:12.027Z,-4.67
2019-01-21T00:10:41.684Z,-4.67
2019-01-21T00:13:14.074Z,-4.67
2019-01-21T00:15:45.924Z,-4.70
2019-01-21T00:18:17.533Z,-4.72
2019-01-21T00:20:48.063Z,-4.74
2019-01-21T00:23:20.954Z,-4.74
2019-01-21T00:25:53.779Z,-4.72
2019-01-21T00:28:23.206Z,-4.78
2019-01-21T00:30:52.862Z,-4.88
2019-01-21T00:33:22.560Z,-4.97
2019-01-21T00:35:55.340Z,-5.02
2019-01-21T00:38:24.704Z,-5.10
2019-01-21T00:40:54.287Z,-5.15
2019-01-21T00:43:24.511Z,-5.17
2019-01-21T00:45:54.823Z,-5.13
2019-01-21T00:48:26.238Z,-5.02
2019-01-21T00:50:57.526Z,-5.06
2019-01-21T00:53:28.989Z,-5.03
2019-01-21T00:55:59.482Z,-5.00
2019-01-21T00:58:29.230Z,-4.99
2019-01-21T01:01:02.349Z,-5.11
2019-01-21T01:03:32.012Z,-5.26
2019-01-21T01:06:01.752Z,-5.20
2019-01-21T01:08:31.135Z,-5.34
2019-01-21T01:11:01.108Z,-5.44
2019-01-21T01:13:30.861Z,-5.53
2019-01-21T01:16:01.983Z,-5.47
2019-01-21T01:18:33.464Z,-5.41
2019-01-21T01:21:04.886Z,-5.39
2019-01-21T01:23:34.797Z,-5.34
2019-01-21T01:26:04.131Z,-5.33
2019-01-21T01:28:34.019Z,-5.35
2019-01-21T01:31:03.452Z,-5.26
2019-01-21T01:33:32.824Z,-5.29
2019-01-21T01:36:14.070Z,-5.27
2019-01-21T01:38:43.708Z,-5.30
2019-01-21T01:41:13.463Z,-5.30
2019-01-21T01:43:45.291Z,-5.30
2019-01-21T01:46:15.025Z,-5.34
2019-01-21T01:48:44.699Z,-5.36
2019-01-21T01:51:15.010Z,-5.42
2019-01-21T01:53:46.890Z,-5.39
2019-01-21T01:56:16.307Z,-5.50
2019-01-21T01:58:45.744Z,-5.54
2019-01-21T02:01:15.336Z,-5.64
2019-01-21T02:03:45.063Z,-5.64
2019-01-21T02:06:15.260Z,-5.74
2019-01-21T02:08:48.231Z,-5.71
2019-01-21T02:11:17.848Z,-5.80
2019-01-21T02:13:47.603Z,-5.87
2019-01-21T02:16:16.975Z,-5.87
2019-01-21T02:18:47.714Z,-5.81
2019-01-21T02:21:17.217Z,-5.89
2019-01-21T02:23:48.887Z,-5.80
2019-01-21T02:26:20.644Z,-5.84
2019-01-21T02:29:08.288Z,-5.81
2019-01-21T02:32:09.979Z,-5.80
2019-01-21T02:34:49.517Z,-5.74
2019-01-21T02:37:32.738Z,-5.74
2019-01-21T02:40:26.814Z,-5.72
2019-01-21T02:43:20.337Z,-5.69
2019-01-21T02:46:09.639Z,-5.75
2019-01-21T02:48:55.968Z,-5.76
2019-01-21T02:51:33.379Z,-5.79
2019-01-21T02:54:27.061Z,-5.69
2019-01-21T02:57:23.485Z,-5.93
2019-01-21T03:00:19.832Z,-6.02
2019-01-21T03:02:57.003Z,-6.05
2019-01-21T03:05:37.043Z,-5.99
2019-01-21T03:08:17.650Z,-5.96
2019-01-21T03:11:01.646Z,-5.97
2019-01-21T03:13:53.731Z,-5.97
2019-01-21T03:16:58.567Z,-5.97
2019-01-21T03:19:41.761Z,-6.02
2019-01-21T03:22:31.180Z,-6.06
2019-01-21T03:25:43.324Z,-6.13
2019-01-21T03:28:29.636Z,-6.13
2019-01-21T03:31:49.390Z,-6.10
2019-01-21T03:34:32.565Z,-6.06
2019-01-21T03:37:09.534Z,-6.04
2019-01-21T03:40:01.405Z,-6.07
2019-01-21T03:43:12.251Z,-6.06
2019-01-21T03:46:01.507Z,-6.06
2019-01-21T03:48:35.638Z,-6.04
2019-01-21T03:51:18.722Z,-6.00
2019-01-21T03:53:55.914Z,-5.99
2019-01-21T03:56:30.213Z,-6.03
2019-01-21T03:59:12.821Z,-6.07
2019-01-21T04:02:06.580Z,-6.15
2019-01-21T04:05:01.811Z,-6.23
2019-01-21T04:07:47.638Z,-6.30
2019-01-21T04:10:37.185Z,-6.27
2019-01-21T04:13:31.894Z,-6.29
2019-01-21T04:16:14.811Z,-6.49
2019-01-21T04:18:49.359Z,-6.49
2019-01-21T04:21:31.966Z,-6.49
2019-01-21T04:24:12.501Z,-6.55
2019-01-21T04:26:53.044Z,-6.53
2019-01-21T04:30:02.300Z,-6.54
2019-01-21T04:32:42.055Z,-6.58
2019-01-21T04:35:34.735Z,-6.60
2019-01-21T04:38:31.473Z,-6.54
2019-01-21T04:41:22.782Z,-6.66
2019-01-21T04:44:02.706Z,-6.65
2019-01-21T04:46:36.945Z,-6.67
2019-01-21T04:49:34.239Z,-6.73
2019-01-21T04:52:08.792Z,-6.75
2019-01-21T04:55:16.302Z,-6.72
2019-01-21T04:58:14.722Z,-6.74
2019-01-21T05:00:48.951Z,-6.71
2019-01-21T05:03:37.434Z,-6.66
2019-01-21T05:06:44.796Z,-6.58
2019-01-21T05:09:25.594Z,-6.56
2019-01-21T05:12:17.596Z,-6.53
2019-01-21T05:15:29.056Z,-6.60
2019-01-21T05:18:49.487Z,-6.68
2019-01-21T05:21:32.477Z,-6.69
2019-01-21T05:24:21.712Z,-6.70
2019-01-21T05:27:31.115Z,-6.81
2019-01-21T05:30:23.482Z,-6.87
2019-01-21T05:33:12.296Z,-6.94
2019-01-21T05:36:05.575Z,-6.90
2019-01-21T05:38:57.881Z,-5.17
2019-01-21T05:42:09.687Z,-4.49
2019-01-21T05:44:44.206Z,-4.36
2019-01-21T05:47:42.012Z,-4.05
2019-01-21T05:50:28.095Z,-4.48
2019-01-21T05:53:33.936Z,-5.04
2019-01-21T05:56:13.681Z,-5.30
2019-01-21T05:59:10.073Z,-5.67
2019-01-21T06:02:06.654Z,-5.61
2019-01-21T06:04:46.706Z,-5.82
2019-01-21T06:07:52.086Z,-5.97
2019-01-21T06:10:32.175Z,-6.06
2019-01-21T06:13:12.540Z,-6.21
2019-01-21T06:16:10.329Z,-6.27
2019-01-21T06:19:03.886Z,-6.33
2019-01-21T06:21:46.658Z,-6.46
2019-01-21T06:24:36.144Z,-6.55
2019-01-21T06:27:22.026Z,-6.67
2019-01-21T06:29:59.348Z,-6.72
2019-01-21T06:33:09.365Z,-6.79
2019-01-21T06:35:55.049Z,-6.81
2019-01-21T06:38:32.118Z,-6.90
2019-01-21T06:41:27.285Z,-6.88
2019-01-21T06:44:07.353Z,-6.91
2019-01-21T06:47:00.735Z,-6.96
2019-01-21T06:49:46.761Z,-6.89
2019-01-21T06:52:32.601Z,-6.86
2019-01-21T06:55:40.098Z,-6.84
2019-01-21T06:58:47.337Z,-6.81
2019-01-21T07:01:44.829Z,-6.86
2019-01-21T07:04:33.872Z,-6.85
2019-01-21T07:07:28.762Z,-6.87
2019-01-21T07:10:18.344Z,-6.82
2019-01-21T07:13:10.877Z,-6.73
2019-01-21T07:16:02.105Z,-6.76
2019-01-21T07:18:39.085Z,-6.81
2019-01-21T07:21:28.218Z,-6.87
2019-01-21T07:24:21.890Z,-6.84
2019-01-21T07:27:01.490Z,-6.90
2019-01-21T07:29:53.997Z,-6.76
2019-01-21T07:32:45.600Z,-6.65
2019-01-21T07:35:28.900Z,-6.61
2019-01-21T07:38:18.003Z,-6.54
2019-01-21T07:41:07.043Z,-6.52
2019-01-21T07:44:07.834Z,-6.53
2019-01-21T07:46:53.612Z,-6.37
2019-01-21T07:49:50.512Z,-6.37
2019-01-21T07:52:42.583Z,-6.42
2019-01-21T07:55:53.186Z,-6.25
2019-01-21T07:59:03.682Z,-6.36
2019-01-21T08:01:56.485Z,-6.44
2019-01-21T08:04:49.157Z,-6.59
2019-01-21T08:07:37.844Z,-6.47
2019-01-21T08:10:44.921Z,-6.37
2019-01-21T08:13:30.817Z,-6.20
2019-01-21T08:16:07.963Z,-6.06
2019-01-21T08:18:50.956Z,-6.06
2019-01-21T08:21:50.191Z,-5.94
2019-01-21T08:24:36.724Z,-5.93
2019-01-21T08:27:25.919Z,-5.84
2019-01-21T08:30:19.996Z,-5.69
2019-01-21T08:33:21.658Z,-5.65
2019-01-21T08:36:10.545Z,-5.58
2019-01-21T08:38:53.825Z,-5.55
2019-01-21T08:41:28.141Z,-5.52
2019-01-21T08:44:10.924Z,-5.55
2019-01-21T08:47:02.904Z,-5.46
2019-01-21T08:49:59.598Z,-5.40
2019-01-21T08:52:45.195Z,-5.25
2019-01-21T08:55:55.338Z,-5.35
2019-01-21T08:58:38.742Z,-5.66
2019-01-21T09:01:44.382Z,-5.67
2019-01-21T09:04:49.757Z,-5.55
2019-01-21T09:07:56.151Z,-5.34
2019-01-21T09:10:47.870Z,-5.17
2019-01-21T09:13:40.673Z,-5.39
2019-01-21T09:16:44.833Z,-5.20
2019-01-21T09:19:42.847Z,-5.10
2019-01-21T09:22:17.130Z,-4.91
2019-01-21T09:25:06.411Z,-4.97
2019-01-21T09:27:40.975Z,-4.86
2019-01-21T09:30:34.559Z,-4.95
2019-01-21T09:33:38.086Z,-4.75
2019-01-21T09:36:39.226Z,-4.69
2019-01-21T09:39:36.641Z,-4.87
2019-01-21T09:42:16.872Z,-5.09
2019-01-21T09:44:59.767Z,-5.32
2019-01-21T09:47:27.743Z,-5.41
2019-01-21T09:49:57.405Z,-5.36
2019-01-21T09:52:27.043Z,-5.24
2019-01-21T09:54:56.410Z,-4.80
2019-01-21T09:57:26.169Z,-4.61
2019-01-21T09:59:55.569Z,-4.45
2019-01-21T10:02:32.537Z,-4.27
2019-01-21T10:05:02.825Z,-4.10
2019-01-21T10:07:36.007Z,-3.94
2019-01-21T10:10:28.638Z,-3.82
2019-01-21T10:13:30.922Z,-3.61
2019-01-21T10:16:16.735Z,-3.64
2019-01-21T10:19:12.003Z,-3.61
2019-01-21T10:22:17.295Z,-3.52
2019-01-21T10:25:12.199Z,-3.55
2019-01-21T10:28:16.578Z,-3.70
2019-01-21T10:30:54.186Z,-3.92
2019-01-21T10:33:47.437Z,-3.72
2019-01-21T10:36:39.223Z,-3.59
2019-01-21T10:39:49.433Z,-3.39
2019-01-21T10:42:32.402Z,-3.55
2019-01-21T10:45:31.907Z,-3.54
2019-01-21T10:48:15.214Z,-3.59
2019-01-21T10:51:07.258Z,-3.34
2019-01-21T10:54:00.931Z,-3.46
2019-01-21T10:56:43.409Z,-2.86
2019-01-21T10:59:23.665Z,-1.80
2019-01-21T11:02:31.093Z,-1.20
2019-01-21T11:05:07.940Z,0.14
2019-01-21T11:07:56.793Z,1.33
2019-01-21T11:10:39.930Z,2.40
2019-01-21T11:13:44.319Z,3.28
2019-01-21T11:16:39.228Z,4.13
2019-01-21T11:19:28.384Z,3.64
2019-01-21T11:22:02.589Z,4.78
2019-01-21T11:24:52.012Z,5.12
2019-01-21T11:27:28.887Z,5.65
2019-01-21T11:30:03.350Z,5.82
2019-01-21T11:32:59.153Z,6.12
2019-01-21T11:35:45.294Z,5.93
2019-01-21T11:38:55.376Z,6.20
2019-01-21T11:41:30.010Z,6.46
2019-01-21T11:44:15.854Z,6.26
2019-01-21T11:47:08.753Z,6.70
2019-01-21T11:49:51.396Z,5.94
2019-01-21T11:52:25.888Z,5.91
2019-01-21T11:55:00.175Z,6.41
2019-01-21T11:57:55.926Z,6.31
2019-01-21T12:01:03.254Z,6.85
2019-01-21T12:04:03.277Z,5.32
2019-01-21T12:06:40.728Z,5.66
2019-01-21T12:09:26.436Z,4.97
2019-01-21T12:12:03.694Z,5.21
2019-01-21T12:15:12.493Z,5.65
2019-01-21T12:17:56.197Z,5.64
2019-01-21T12:20:38.978Z,5.98
2019-01-21T12:23:40.002Z,6.01
2019-01-21T12:26:22.903Z,6.10
2019-01-21T12:29:19.443Z,7.05
2019-01-21T12:32:14.777Z,7.49
2019-01-21T12:34:58.102Z,7.84
2019-01-21T12:37:38.173Z,7.18
2019-01-21T12:40:18.551Z,7.16
2019-01-21T12:43:07.396Z,7.21
2019-01-21T12:45:59.468Z,6.82
2019-01-21T12:48:39.371Z,6.16
2019-01-21T12:51:28.395Z,5.31
2019-01-21T12:54:14.537Z,5.57
2019-01-21T12:57:05.020Z,4.95
2019-01-21T12:59:56.843Z,4.44
2019-01-21T13:02:33.846Z,4.11
2019-01-21T13:05:22.442Z,3.71
2019-01-21T13:08:14.911Z,3.19
2019-01-21T13:11:09.743Z,2.37
2019-01-21T13:14:01.791Z,1.58
2019-01-21T13:16:50.698Z,1.82
2019-01-21T13:20:00.837Z,1.87
2019-01-21T13:22:51.590Z,1.74
2019-01-21T13:25:42.317Z,1.65
2019-01-21T13:28:31.177Z,1.46
2019-01-21T13:31:17.092Z,1.46
2019-01-21T13:34:13.816Z,1.49
2019-01-21T13:37:12.503Z,1.30
2019-01-21T13:40:13.584Z,1.08
2019-01-21T13:42:53.354Z,1.00
2019-01-21T13:45:43.778Z,1.02
2019-01-21T13:48:20.872Z,1.04
2019-01-21T13:51:16.056Z,1.08
2019-01-21T13:53:55.992Z,1.05
2019-01-21T13:56:38.993Z,1.05
2019-01-21T13:59:25.290Z,1.06
2019-01-21T14:02:02.449Z,0.94
2019-01-21T14:05:03.329Z,0.83
2019-01-21T14:08:01.221Z,0.69
2019-01-21T14:10:44.622Z,0.61
2019-01-21T14:13:42.673Z,0.74
2019-01-21T14:16:46.902Z,0.73
2019-01-21T14:19:26.110Z,0.69
2019-01-21T14:22:08.496Z,0.68
2019-01-21T14:25:14.378Z,0.73
2019-01-21T14:28:10.718Z,0.63
2019-01-21T14:31:10.047Z,0.55
2019-01-21T14:33:50.014Z,0.45
2019-01-21T14:36:29.468Z,0.46
2019-01-21T14:39:20.989Z,0.44
2019-01-21T14:42:00.893Z,0.29
2019-01-21T14:45:03.398Z,0.20
2019-01-21T14:47:54.385Z,0.20
2019-01-21T14:50:40.552Z,0.13
2019-01-21T14:53:20.045Z,0.08
2019-01-21T14:56:10.924Z,-0.02
2019-01-21T14:58:45.430Z,-0.13
2019-01-21T15:01:55.422Z,-0.21
2019-01-21T15:04:35.140Z,-0.26
2019-01-21T15:07:15.147Z,-0.31
2019-01-21T15:09:49.457Z,-0.39
2019-01-21T15:12:29.490Z,-0.42
2019-01-21T15:15:24.218Z,-0.37
2019-01-21T15:18:33.030Z,-0.40
2019-01-21T15:21:12.643Z,-0.48
2019-01-21T15:24:03.368Z,-0.51
2019-01-21T15:26:52.675Z,-0.72
2019-01-21T15:29:41.852Z,-0.84
2019-01-21T15:32:37.148Z,-0.91
2019-01-21T15:35:31.723Z,-0.96
2019-01-21T15:38:29.189Z,-1.01
2019-01-21T15:41:09.197Z,-1.05
2019-01-21T15:43:46.199Z,-1.09
2019-01-21T15:46:47.582Z,-1.17
2019-01-21T15:49:27.617Z,-1.21
2019-01-21T15:52:19.686Z,-1.21
2019-01-21T15:55:11.823Z,-1.23
2019-01-21T15:57:49.031Z,-1.28
2019-01-21T16:00:25.889Z,-1.33
2019-01-21T16:03:23.853Z,-1.48
2019-01-21T16:06:10.169Z,-1.40
2019-01-21T16:08:47.510Z,-1.42
2019-01-21T16:11:47.092Z,-1.40
2019-01-21T16:14:17.699Z,-1.44
2019-01-21T16:17:03.772Z,-1.49
2019-01-21T16:19:34.070Z,-1.50
2019-01-21T16:22:20.180Z,-1.56
2019-01-21T16:25:03.553Z,-1.62
2019-01-21T16:28:14.066Z,-1.65
2019-01-21T16:31:00.486Z,-1.71
2019-01-21T16:34:17.501Z,-1.77
2019-01-21T16:37:07.484Z,-1.82
2019-01-21T16:39:57.639Z,-1.89
2019-01-21T16:42:27.540Z,-1.95
2019-01-21T16:44:58.675Z,-2.00
2019-01-21T16:47:28.273Z,-2.04
2019-01-21T16:49:57.628Z,-2.06
2019-01-21T16:52:27.369Z,-2.08
2019-01-21T16:54:56.751Z,-2.03
2019-01-21T16:57:26.062Z,-2.07
2019-01-21T16:59:55.666Z,-2.08
2019-01-21T17:02:25.256Z,-2.16
2019-01-21T17:04:54.695Z,-2.13
2019-01-21T17:07:24.420Z,-2.16
2019-01-21T17:09:53.999Z,-2.18
2019-01-21T17:12:23.607Z,-2.20
2019-01-21T17:14:57.364Z,-2.22
2019-01-21T17:17:30.212Z,-2.20
2019-01-21T17:19:59.815Z,-2.28
2019-01-21T17:22:29.203Z,-2.33
2019-01-21T17:24:58.575Z,-2.35
2019-01-21T17:27:28.215Z,-2.40
2019-01-21T17:29:57.543Z,-2.42
2019-01-21T17:32:27.052Z,-2.49
2019-01-21T17:34:56.857Z,-2.50
2019-01-21T17:37:26.229Z,-2.55
2019-01-21T17:39:55.632Z,-2.50
2019-01-21T17:42:25.342Z,-2.56
2019-01-21T17:44:54.960Z,-2.64
2019-01-21T17:47:24.337Z,-2.68
2019-01-21T17:49:54.710Z,-2.71
2019-01-21T17:52:27.361Z,-2.73
2019-01-21T17:54:56.722Z,-2.72
2019-01-21T17:57:26.387Z,-2.76
2019-01-21T17:59:56.027Z,-2.82
2019-01-21T18:02:25.705Z,-2.84
2019-01-21T18:04:55.331Z,-2.83
2019-01-21T18:07:24.727Z,-2.84
2019-01-21T18:09:54.068Z,-2.89
2019-01-21T18:12:24.084Z,-2.90
2019-01-21T18:14:54.615Z,-2.92
2019-01-21T18:17:26.003Z,-2.99
2019-01-21T18:19:55.647Z,-2.98
2019-01-21T18:22:30.089Z,-2.97
2019-01-21T18:25:00.818Z,-2.94
2019-01-21T18:27:31.521Z,-2.93
2019-01-21T18:30:02.023Z,-2.97
2019-01-21T18:32:31.542Z,-3.01
2019-01-21T18:35:01.353Z,-3.06
2019-01-21T18:37:30.998Z,-3.02
2019-01-21T18:40:00.631Z,-3.08
2019-01-21T18:42:29.981Z,-3.04
2019-01-21T18:44:59.950Z,-3.07
2019-01-21T18:47:29.623Z,-3.09
2019-01-21T18:50:00.048Z,-3.21
2019-01-21T18:52:31.217Z,-3.26
2019-01-21T18:55:03.158Z,-3.32
2019-01-21T18:57:34.020Z,-3.32
2019-01-21T19:00:04.347Z,-3.14
2019-01-21T19:02:33.978Z,-3.19
2019-01-21T19:05:03.773Z,-3.25
2019-01-21T19:07:33.105Z,-3.43
2019-01-21T19:10:02.761Z,-3.46
2019-01-21T19:12:32.396Z,-3.86
2019-01-21T19:15:02.149Z,-3.52
2019-01-21T19:17:31.825Z,-3.51
2019-01-21T19:20:01.500Z,-3.46
2019-01-21T19:22:30.873Z,-3.42
2019-01-21T19:25:00.268Z,-3.50
2019-01-21T19:27:29.876Z,-3.50
2019-01-21T19:29:59.519Z,-3.53
2019-01-21T19:32:29.250Z,-3.62
2019-01-21T19:34:58.911Z,-3.64
2019-01-21T19:37:28.249Z,-3.60
2019-01-21T19:39:57.625Z,-3.52
2019-01-21T19:42:27.055Z,-3.52
2019-01-21T19:44:56.673Z,-3.60
2019-01-21T19:47:26.364Z,-3.59
2019-01-21T19:49:55.994Z,-3.63
2019-01-21T19:52:25.696Z,-3.67
2019-01-21T19:54:55.080Z,-4.06
2019-01-21T19:57:24.423Z,-3.79
2019-01-21T19:59:54.064Z,-3.77
2019-01-21T20:02:23.728Z,-3.78
2019-01-21T20:04:53.120Z,-3.84
2019-01-21T20:07:22.628Z,-3.81
2019-01-21T20:09:52.298Z,-3.84
2019-01-21T20:12:21.674Z,-3.82
2019-01-21T20:14:51.113Z,-3.82
2019-01-21T20:17:20.807Z,-3.85
2019-01-21T20:19:50.187Z,-3.90
2019-01-21T20:22:22.754Z,-3.94
2019-01-21T20:24:52.289Z,-4.00
2019-01-21T20:27:21.619Z,-4.02
2019-01-21T20:29:51.228Z,-4.04
2019-01-21T20:32:20.974Z,-4.09
2019-01-21T20:34:50.356Z,-4.43
2019-01-21T20:37:20.012Z,-4.09
2019-01-21T20:39:49.341Z,-4.05
2019-01-21T20:42:18.923Z,-4.00
2019-01-21T20:44:48.737Z,-3.92
2019-01-21T20:47:18.093Z,-3.96
2019-01-21T20:49:47.792Z,-4.04
2019-01-21T20:52:17.268Z,-4.05
2019-01-21T20:54:46.638Z,-4.13
2019-01-21T20:57:15.971Z,-4.14
2019-01-21T20:59:45.625Z,-4.25
2019-01-21T21:02:15.260Z,-4.23
2019-01-21T21:04:44.998Z,-4.33
2019-01-21T21:07:14.638Z,-4.23
2019-01-21T21:09:44.259Z,-4.11
2019-01-21T21:12:13.878Z,-4.11
2019-01-21T21:14:43.285Z,-4.02
2019-01-21T21:17:12.756Z,-4.00
2019-01-21T21:19:42.619Z,-3.97
2019-01-21T21:22:12.115Z,-3.98
2019-01-21T21:24:42.079Z,-4.56
2019-01-21T21:27:11.577Z,-4.31
2019-01-21T21:29:41.363Z,-4.20
2019-01-21T21:32:11.058Z,-4.27
2019-01-21T21:34:40.776Z,-4.33
2019-01-21T21:37:10.392Z,-4.42
2019-01-21T21:39:39.742Z,-4.45
2019-01-21T21:42:09.756Z,-4.43
2019-01-21T21:44:39.107Z,-4.42
2019-01-21T21:47:08.496Z,-4.46
2019-01-21T21:49:37.869Z,-4.38
2019-01-21T21:52:07.680Z,-4.31
2019-01-21T21:54:37.103Z,-4.24
2019-01-21T21:57:07.083Z,-4.23
2019-01-21T21:59:36.666Z,-4.15
2019-01-21T22:02:06.002Z,-4.16
2019-01-21T22:04:35.346Z,-4.04
2019-01-21T22:07:04.679Z,-4.10
2019-01-21T22:09:34.024Z,-4.07
2019-01-21T22:12:03.632Z,-4.05
2019-01-21T22:14:34.009Z,-4.06
2019-01-21T22:17:03.675Z,-3.98
2019-01-21T22:19:33.368Z,-4.04
2019-01-21T22:22:02.974Z,-4.18
2019-01-21T22:24:32.402Z,-4.27
2019-01-21T22:27:02.064Z,-4.35
2019-01-21T22:29:31.646Z,-4.32
2019-01-21T22:32:00.998Z,-4.41
2019-01-21T22:34:30.655Z,-4.34
2019-01-21T22:37:00.418Z,-4.26
2019-01-21T22:39:30.033Z,-4.25
2019-01-21T22:41:59.674Z,-4.41
2019-01-21T22:44:29.064Z,-4.57
2019-01-21T22:46:58.717Z,-4.54
2019-01-21T22:49:28.403Z,-4.54
2019-01-21T22:51:58.029Z,-4.60
2019-01-21T22:54:27.692Z,-4.68
2019-01-21T22:56:57.334Z,-4.68
2019-01-21T22:59:26.707Z,-4.71
2019-01-21T23:01:56.138Z,-4.74
2019-01-21T23:04:25.769Z,-4.67
2019-01-21T23:06:55.119Z,-4.81
2019-01-21T23:09:24.729Z,-4.81
2019-01-21T23:11:54.067Z,-4.81
2019-01-21T23:14:23.450Z,-4.77
2019-01-21T23:16:53.139Z,-4.89
2019-01-21T23:19:22.489Z,-4.99
2019-01-21T23:21:52.122Z,-4.97
2019-01-21T23:24:21.468Z,-5.03
2019-01-21T23:26:50.824Z,-5.07
2019-01-21T23:29:20.154Z,-5.08
2019-01-21T23:31:49.498Z,-5.05
2019-01-21T23:34:19.120Z,-5.05
2019-01-21T23:36:48.915Z,-5.14
2019-01-21T23:39:18.315Z,-5.24
2019-01-21T23:41:47.729Z,-5.21
2019-01-21T23:44:17.318Z,-5.26
2019-01-21T23:46:46.941Z,-5.30
2019-01-21T23:49:16.833Z,-5.29
2019-01-21T23:51:46.436Z,-5.18
2019-01-21T23:54:16.072Z,-5.22
2019-01-21T23:56:45.777Z,-5.25
2019-01-21T23:59:15.399Z,-5.20
